createdAt,value
2022-11-20T00:01:40.407Z,96.45
2022-11-20T00:04:10.034Z,96.44
2022-11-20T00:06:38.350Z,96.79
2022-11-20T00:09:07.187Z,96.49
2022-11-20T00:11:37.301Z,96.68
2022-11-20T00:14:06.053Z,96.75
2022-11-20T00:16:35.449Z,96.89
2022-11-20T00:19:04.388Z,96.93
2022-11-20T00:21:33.625Z,97.25
2022-11-20T00:24:02.081Z,97.25
2022-11-20T00:26:31.287Z,97.68
2022-11-20T00:29:03.470Z,97.52
2022-11-20T00:31:34.022Z,97.41
2022-11-20T00:34:02.297Z,97.47
2022-11-20T00:36:34.563Z,97.38
2022-11-20T00:39:02.894Z,97.65
2022-11-20T00:41:32.327Z,97.61
2022-11-20T00:44:02.312Z,97.41
2022-11-20T00:46:31.255Z,97.46
2022-11-20T00:48:59.957Z,97.41
2022-11-20T00:51:29.371Z,97.57
2022-11-20T00:53:58.672Z,97.67
2022-11-20T00:56:29.614Z,97.58
2022-11-20T00:59:00.752Z,97.61
2022-11-20T01:01:31.653Z,97.68
2022-11-20T01:04:02.103Z,97.44
2022-11-20T01:06:32.653Z,97.47
2022-11-20T01:09:04.993Z,97.54
2022-11-20T01:11:36.192Z,97.55
2022-11-20T01:14:07.833Z,97.45
2022-11-20T01:16:40.328Z,97.32
2022-11-20T01:19:17.497Z,97.08
2022-11-20T01:21:50.231Z,97.16
2022-11-20T01:24:21.039Z,97.30
2022-11-20T01:26:51.652Z,97.00
2022-11-20T01:29:23.471Z,97.13
2022-11-20T01:31:54.131Z,97.16
2022-11-20T01:34:24.244Z,97.12
2022-11-20T01:36:53.753Z,97.18
2022-11-20T01:39:26.950Z,97.11
2022-11-20T01:42:14.232Z,96.92
2022-11-20T01:44:56.943Z,97.02
2022-11-20T01:47:34.066Z,96.73
2022-11-20T01:50:08.239Z,96.56
2022-11-20T01:52:43.214Z,96.77
2022-11-20T01:55:16.670Z,96.36
2022-11-20T01:57:47.726Z,96.26
2022-11-20T02:00:19.604Z,95.89
2022-11-20T02:02:55.872Z,94.86
2022-11-20T02:05:31.162Z,94.64
2022-11-20T02:08:01.284Z,94.25
2022-11-20T02:10:30.559Z,93.60
2022-11-20T02:13:16.727Z,93.76
2022-11-20T02:15:45.583Z,93.34
2022-11-20T02:18:18.729Z,93.88
2022-11-20T02:20:50.032Z,94.49
2022-11-20T02:23:26.789Z,94.56
2022-11-20T02:25:57.831Z,94.13
2022-11-20T02:28:26.807Z,93.80
2022-11-20T02:30:55.127Z,94.19
2022-11-20T02:33:23.402Z,94.39
2022-11-20T02:35:51.918Z,94.43
2022-11-20T02:38:20.522Z,94.73
2022-11-20T02:40:54.107Z,95.11
2022-11-20T02:43:25.241Z,95.14
2022-11-20T02:45:53.582Z,94.79
2022-11-20T02:48:23.666Z,94.70
2022-11-20T02:50:53.763Z,94.16
2022-11-20T02:53:22.085Z,93.39
2022-11-20T02:55:50.311Z,91.28
2022-11-20T02:58:18.716Z,91.86
2022-11-20T03:00:48.344Z,92.18
2022-11-20T03:03:16.624Z,91.40
2022-11-20T03:05:44.940Z,91.09
2022-11-20T03:08:13.237Z,90.41
2022-11-20T03:10:41.515Z,90.21
2022-11-20T03:13:09.964Z,90.62
2022-11-20T03:15:38.707Z,90.55
2022-11-20T03:18:08.574Z,89.67
2022-11-20T03:20:37.179Z,90.19
2022-11-20T03:23:05.658Z,90.14
2022-11-20T03:25:34.113Z,89.49
2022-11-20T03:28:02.439Z,89.71
2022-11-20T03:30:31.182Z,89.75
2022-11-20T03:32:59.477Z,89.56
2022-11-20T03:35:29.295Z,89.71
2022-11-20T03:37:57.671Z,90.33
2022-11-20T03:40:26.014Z,90.20
2022-11-20T03:42:54.373Z,90.38
2022-11-20T03:45:23.000Z,90.28
2022-11-20T03:47:51.404Z,89.76
2022-11-20T03:50:19.831Z,89.72
2022-11-20T03:52:49.553Z,89.87
2022-11-20T03:55:17.959Z,90.04
2022-11-20T03:57:46.263Z,89.67
2022-11-20T04:00:16.449Z,89.59
2022-11-20T04:02:44.819Z,88.70
2022-11-20T04:05:13.178Z,89.18
2022-11-20T04:07:41.657Z,89.30
2022-11-20T04:10:11.665Z,89.49
2022-11-20T04:12:39.956Z,88.61
2022-11-20T04:15:09.286Z,88.78
2022-11-20T04:17:37.545Z,88.94
2022-11-20T04:20:07.332Z,88.56
2022-11-20T04:22:35.605Z,89.07
2022-11-20T04:25:04.386Z,88.85
2022-11-20T04:27:34.196Z,88.38
2022-11-20T04:30:02.476Z,88.77
2022-11-20T04:32:31.007Z,89.36
2022-11-20T04:34:59.400Z,89.75
2022-11-20T04:37:27.845Z,89.60
2022-11-20T04:39:56.338Z,89.19
2022-11-20T04:42:30.952Z,89.72
2022-11-20T04:45:00.920Z,90.01
2022-11-20T04:47:29.387Z,90.03
2022-11-20T04:49:57.789Z,89.12
2022-11-20T04:52:26.173Z,89.98
2022-11-20T04:54:54.821Z,89.78
2022-11-20T04:57:23.291Z,88.49
2022-11-20T04:59:51.592Z,88.24
2022-11-20T05:02:21.946Z,87.92
2022-11-20T05:04:50.220Z,88.31
2022-11-20T05:07:18.960Z,87.52
2022-11-20T05:09:47.300Z,87.90
2022-11-20T05:12:15.706Z,87.28
2022-11-20T05:14:44.171Z,87.39
2022-11-20T05:17:13.566Z,88.00
2022-11-20T05:19:43.360Z,87.99
2022-11-20T05:22:11.583Z,87.82
2022-11-20T05:24:40.020Z,88.20
2022-11-20T05:27:08.314Z,88.56
2022-11-20T05:29:36.882Z,88.48
2022-11-20T05:32:06.712Z,88.97
2022-11-20T05:34:35.272Z,88.77
2022-11-20T05:37:05.143Z,88.43
2022-11-20T05:39:33.611Z,88.59
2022-11-20T05:42:19.587Z,90.10
2022-11-20T05:44:48.177Z,90.53
2022-11-20T05:47:16.404Z,87.98
2022-11-20T05:49:44.930Z,87.31
2022-11-20T05:52:14.583Z,88.02
2022-11-20T05:54:42.850Z,87.39
2022-11-20T05:57:11.540Z,87.14
2022-11-20T05:59:39.853Z,87.74
2022-11-20T06:02:08.330Z,87.69
2022-11-20T06:04:36.591Z,87.46
2022-11-20T06:07:06.527Z,86.88
2022-11-20T06:09:36.394Z,86.96
2022-11-20T06:12:05.284Z,87.66
2022-11-20T06:14:33.698Z,87.46
2022-11-20T06:17:02.305Z,87.64
2022-11-20T06:19:30.630Z,87.22
2022-11-20T06:21:59.002Z,87.05
2022-11-20T06:24:27.505Z,87.54
2022-11-20T06:26:57.512Z,87.55
2022-11-20T06:29:28.865Z,87.35
2022-11-20T06:32:00.973Z,87.11
2022-11-20T06:34:29.373Z,87.13
2022-11-20T06:36:57.638Z,86.88
2022-11-20T06:39:25.964Z,87.40
2022-11-20T06:41:58.616Z,87.06
2022-11-20T06:44:28.848Z,87.43
2022-11-20T06:46:57.201Z,87.12
2022-11-20T06:49:26.231Z,87.25
2022-11-20T06:51:54.630Z,87.20
2022-11-20T06:54:22.941Z,87.15
2022-11-20T06:56:51.533Z,87.21
2022-11-20T06:59:20.513Z,87.19
2022-11-20T07:01:50.383Z,87.01
2022-11-20T07:04:18.701Z,87.31
2022-11-20T07:06:46.940Z,87.12
2022-11-20T07:09:15.573Z,86.94
2022-11-20T07:11:43.874Z,86.50
2022-11-20T07:14:12.350Z,86.55
2022-11-20T07:16:40.609Z,86.52
2022-11-20T07:19:10.360Z,86.75
2022-11-20T07:21:38.815Z,86.28
2022-11-20T07:24:07.520Z,85.55
2022-11-20T07:26:36.495Z,85.46
2022-11-20T07:29:04.930Z,85.95
2022-11-20T07:31:33.567Z,85.66
2022-11-20T07:34:01.937Z,84.95
2022-11-20T07:36:31.600Z,84.81
2022-11-20T07:39:00.156Z,84.92
2022-11-20T07:41:28.615Z,85.34
2022-11-20T07:43:57.083Z,84.97
2022-11-20T07:46:25.557Z,85.16
2022-11-20T07:48:54.552Z,85.08
2022-11-20T07:51:23.308Z,84.79
2022-11-20T07:53:54.610Z,84.35
2022-11-20T07:56:23.024Z,85.00
2022-11-20T07:58:51.702Z,85.34
2022-11-20T08:01:20.269Z,85.79
2022-11-20T08:03:48.869Z,84.96
2022-11-20T08:06:17.437Z,85.02
2022-11-20T08:08:45.989Z,85.44
2022-11-20T08:11:33.480Z,85.29
2022-11-20T08:14:14.625Z,85.36
2022-11-20T08:16:45.568Z,85.50
2022-11-20T08:19:15.071Z,85.25
2022-11-20T08:21:43.791Z,85.31
2022-11-20T08:24:12.726Z,85.43
2022-11-20T08:26:43.546Z,85.78
2022-11-20T08:29:12.137Z,85.04
2022-11-20T08:31:40.677Z,84.86
2022-11-20T08:34:10.283Z,84.41
2022-11-20T08:36:39.925Z,84.41
2022-11-20T08:39:08.375Z,84.62
2022-11-20T08:41:37.726Z,85.15
2022-11-20T08:44:09.689Z,84.89
2022-11-20T08:46:42.070Z,85.51
2022-11-20T08:49:12.981Z,85.48
2022-11-20T08:51:42.157Z,84.95
2022-11-20T08:54:13.451Z,85.23
2022-11-20T08:56:41.957Z,84.78
2022-11-20T08:59:36.912Z,84.38
2022-11-20T09:02:00.485Z,84.26
2022-11-20T09:04:28.889Z,83.77
2022-11-20T09:06:57.482Z,83.36
2022-11-20T09:09:26.028Z,83.15
2022-11-20T09:11:54.748Z,83.13
2022-11-20T09:14:25.724Z,82.79
2022-11-20T09:16:54.225Z,83.28
2022-11-20T09:19:37.748Z,83.83
2022-11-20T09:22:06.315Z,83.09
2022-11-20T09:24:34.986Z,81.84
2022-11-20T09:27:07.497Z,81.50
2022-11-20T09:29:37.513Z,82.40
2022-11-20T09:32:07.206Z,82.34
2022-11-20T09:34:35.681Z,82.05
2022-11-20T09:37:06.471Z,81.93
2022-11-20T09:39:39.721Z,82.30
2022-11-20T09:42:36.404Z,82.12
2022-11-20T09:45:21.211Z,81.91
2022-11-20T09:48:06.908Z,82.82
2022-11-20T09:50:42.803Z,83.29
2022-11-20T09:53:22.695Z,82.80
2022-11-20T09:55:51.274Z,82.97
2022-11-20T09:58:33.050Z,82.50
2022-11-20T10:01:12.846Z,82.81
2022-11-20T10:03:53.891Z,82.59
2022-11-20T10:06:31.182Z,83.65
2022-11-20T10:09:14.409Z,84.34
2022-11-20T10:11:53.255Z,85.31
2022-11-20T10:14:36.748Z,84.53
2022-11-20T10:17:20.678Z,84.39
2022-11-20T10:20:04.904Z,85.59
2022-11-20T10:22:49.442Z,86.08
2022-11-20T10:25:20.471Z,86.56
2022-11-20T10:28:09.833Z,86.12
2022-11-20T10:30:42.484Z,86.66
2022-11-20T10:33:20.466Z,87.47
2022-11-20T10:35:55.451Z,88.86
2022-11-20T10:38:28.536Z,90.15
2022-11-20T10:41:21.018Z,89.35
2022-11-20T10:43:54.248Z,90.60
2022-11-20T10:46:24.730Z,91.13
2022-11-20T10:48:54.532Z,91.78
2022-11-20T10:51:37.955Z,92.38
2022-11-20T10:54:23.650Z,93.02
2022-11-20T10:56:55.252Z,92.83
2022-11-20T10:59:44.345Z,92.59
2022-11-20T11:02:20.038Z,92.16
2022-11-20T11:04:52.647Z,92.11
2022-11-20T11:07:26.754Z,91.76
2022-11-20T11:09:58.334Z,92.66
2022-11-20T11:12:30.264Z,92.41
2022-11-20T11:14:59.962Z,93.32
2022-11-20T11:17:31.846Z,94.08
2022-11-20T11:20:08.996Z,93.80
2022-11-20T11:22:47.596Z,93.39
2022-11-20T11:25:46.835Z,92.62
2022-11-20T11:28:30.972Z,93.39
2022-11-20T11:31:00.131Z,93.23
2022-11-20T11:33:30.863Z,93.69
2022-11-20T11:36:04.241Z,93.02
2022-11-20T11:38:38.116Z,93.74
2022-11-20T11:41:08.538Z,93.63
2022-11-20T11:43:56.946Z,91.16
2022-11-20T11:46:33.782Z,90.90
2022-11-20T11:49:11.349Z,85.85
2022-11-20T11:51:55.154Z,86.16
2022-11-20T11:54:29.008Z,84.73
2022-11-20T11:57:01.263Z,84.63
2022-11-20T11:59:44.000Z,81.62
2022-11-20T12:02:35.295Z,81.18
2022-11-20T12:05:17.910Z,78.61
2022-11-20T12:07:50.409Z,79.11
2022-11-20T12:10:25.179Z,79.87
2022-11-20T12:13:06.623Z,79.03
2022-11-20T12:15:36.930Z,79.69
2022-11-20T12:18:17.025Z,79.21
2022-11-20T12:20:57.648Z,79.68
2022-11-20T12:23:32.711Z,80.53
2022-11-20T12:26:03.470Z,78.00
2022-11-20T12:28:54.132Z,74.78
2022-11-20T12:31:51.978Z,71.25
2022-11-20T12:34:37.808Z,65.56
2022-11-20T12:37:16.703Z,65.11
2022-11-20T12:39:51.902Z,64.24
2022-11-20T12:42:55.349Z,64.43
2022-11-20T12:45:56.719Z,62.36
2022-11-20T12:48:58.714Z,61.74
2022-11-20T12:51:53.659Z,59.40
2022-11-20T12:54:56.593Z,58.92
2022-11-20T12:57:33.603Z,59.26
2022-11-20T13:00:14.983Z,58.14
2022-11-20T13:03:20.303Z,57.92
2022-11-20T13:05:58.328Z,57.57
2022-11-20T13:08:29.412Z,58.12
2022-11-20T13:11:09.517Z,57.10
2022-11-20T13:13:50.337Z,56.86
2022-11-20T13:16:24.795Z,56.10
2022-11-20T13:18:53.420Z,57.89
2022-11-20T13:21:25.087Z,58.43
2022-11-20T13:23:53.417Z,58.56
2022-11-20T13:26:25.304Z,58.41
2022-11-20T13:29:06.955Z,58.77
2022-11-20T13:31:37.459Z,59.85
2022-11-20T13:34:08.518Z,59.24
2022-11-20T13:36:37.623Z,58.08
2022-11-20T13:39:06.220Z,56.83
2022-11-20T13:41:40.509Z,57.17
2022-11-20T13:44:16.800Z,53.79
2022-11-20T13:46:47.415Z,53.30
2022-11-20T13:49:25.511Z,53.52
2022-11-20T13:52:04.913Z,52.78
2022-11-20T13:55:02.821Z,53.90
2022-11-20T13:57:55.201Z,55.25
2022-11-20T14:00:26.018Z,56.20
2022-11-20T14:03:17.978Z,56.73
2022-11-20T14:05:53.931Z,56.99
2022-11-20T14:08:34.748Z,57.73
2022-11-20T14:11:14.035Z,59.10
2022-11-20T14:13:58.758Z,59.52
2022-11-20T14:16:30.660Z,59.52
2022-11-20T14:22:25.021Z,61.29
2022-11-20T14:25:07.532Z,60.64
2022-11-20T14:27:39.677Z,61.19
2022-11-20T14:30:17.285Z,62.49
2022-11-20T14:32:47.416Z,63.27
2022-11-20T14:35:23.906Z,64.06
2022-11-20T14:37:52.913Z,64.82
2022-11-20T14:40:30.739Z,65.24
2022-11-20T14:43:01.181Z,64.88
2022-11-20T14:45:31.380Z,64.65
2022-11-20T14:48:00.767Z,65.12
2022-11-20T14:50:31.345Z,66.06
2022-11-20T14:53:01.635Z,65.88
2022-11-20T14:55:33.671Z,66.37
2022-11-20T14:58:05.360Z,66.74
2022-11-20T15:00:38.262Z,66.91
2022-11-20T15:03:18.173Z,67.26
2022-11-20T15:05:49.726Z,67.83
2022-11-20T15:08:19.415Z,66.94
2022-11-20T15:10:53.006Z,66.80
2022-11-20T15:13:32.525Z,67.28
2022-11-20T15:16:04.757Z,67.21
2022-11-20T15:18:38.893Z,66.99
2022-11-20T15:21:15.174Z,66.41
2022-11-20T15:23:43.861Z,66.84
2022-11-20T15:26:19.652Z,67.56
2022-11-20T15:28:51.218Z,67.20
2022-11-20T15:31:24.746Z,67.19
2022-11-20T15:33:53.326Z,67.59
2022-11-20T15:36:21.727Z,67.54
2022-11-20T15:38:50.593Z,67.28
2022-11-20T15:41:19.300Z,68.13
2022-11-20T15:43:47.985Z,68.48
2022-11-20T15:46:18.378Z,68.64
2022-11-20T15:48:53.902Z,68.66
2022-11-20T15:51:29.570Z,68.99
2022-11-20T15:53:59.140Z,69.20
2022-11-20T15:56:28.071Z,69.58
2022-11-20T15:58:56.385Z,69.77
2022-11-20T16:01:25.051Z,70.22
2022-11-20T16:03:54.933Z,70.23
2022-11-20T16:06:23.571Z,70.32
2022-11-20T16:08:52.293Z,70.46
2022-11-20T16:11:20.986Z,70.98
2022-11-20T16:14:06.441Z,70.73
2022-11-20T16:16:36.660Z,70.99
2022-11-20T16:19:07.185Z,70.94
2022-11-20T16:21:35.818Z,71.26
2022-11-20T16:24:07.442Z,71.41
2022-11-20T16:26:36.139Z,71.93
2022-11-20T16:29:06.500Z,71.97
2022-11-20T16:31:35.938Z,72.48
2022-11-20T16:34:12.447Z,72.36
2022-11-20T16:36:42.941Z,72.76
2022-11-20T16:39:11.896Z,72.91
2022-11-20T16:41:40.428Z,73.13
2022-11-20T16:44:12.462Z,73.39
2022-11-20T16:46:41.794Z,73.60
2022-11-20T16:49:15.168Z,73.62
2022-11-20T16:51:43.779Z,73.96
2022-11-20T16:54:16.338Z,73.82
2022-11-20T16:56:47.914Z,74.21
2022-11-20T16:59:16.426Z,74.29
2022-11-20T17:01:44.971Z,74.51
2022-11-20T17:04:14.874Z,74.51
2022-11-20T17:06:45.407Z,75.06
2022-11-20T17:09:14.018Z,74.82
2022-11-20T17:11:42.806Z,75.01
2022-11-20T17:14:13.256Z,74.40
2022-11-20T17:16:43.131Z,74.84
2022-11-20T17:19:11.558Z,75.07
2022-11-20T17:21:41.479Z,75.07
2022-11-20T17:24:12.523Z,75.06
2022-11-20T17:26:43.351Z,75.13
2022-11-20T17:29:14.426Z,74.76
2022-11-20T17:31:44.129Z,75.50
2022-11-20T17:34:16.221Z,75.26
2022-11-20T17:36:46.581Z,75.27
2022-11-20T17:39:16.597Z,75.09
2022-11-20T17:42:06.035Z,75.48
2022-11-20T17:44:35.173Z,75.25
2022-11-20T17:47:03.735Z,75.75
2022-11-20T17:49:32.041Z,76.16
2022-11-20T17:52:01.816Z,75.91
2022-11-20T17:54:30.092Z,75.90
2022-11-20T17:57:16.395Z,75.83
2022-11-20T17:59:44.743Z,75.04
2022-11-20T18:02:13.074Z,75.48
2022-11-20T18:04:41.438Z,74.93
2022-11-20T18:07:11.128Z,74.76
2022-11-20T18:09:39.539Z,74.08
2022-11-20T18:12:08.410Z,74.64
2022-11-20T18:14:37.141Z,74.58
2022-11-20T18:17:08.784Z,74.28
2022-11-20T18:19:47.744Z,73.74
2022-11-20T18:22:25.323Z,73.69
2022-11-20T18:24:53.886Z,73.13
2022-11-20T18:27:23.897Z,73.66
2022-11-20T18:29:52.727Z,73.27
2022-11-20T18:32:22.126Z,73.25
2022-11-20T18:34:51.433Z,73.06
2022-11-20T18:37:20.836Z,72.88
2022-11-20T18:39:50.624Z,72.70
2022-11-20T18:42:41.979Z,72.06
2022-11-20T18:45:10.960Z,71.94
2022-11-20T18:47:40.210Z,72.53
2022-11-20T18:50:10.843Z,72.19
2022-11-20T18:52:44.525Z,72.71
2022-11-20T18:55:15.201Z,73.90
2022-11-20T18:57:43.930Z,73.93
2022-11-20T19:00:15.020Z,76.60
2022-11-20T19:02:43.981Z,75.98
2022-11-20T19:05:13.884Z,78.46
2022-11-20T19:07:42.838Z,77.99
2022-11-20T19:10:12.171Z,77.70
2022-11-20T19:12:42.296Z,78.48
2022-11-20T19:15:12.033Z,79.63
2022-11-20T19:17:40.769Z,80.25
2022-11-20T19:20:10.480Z,79.35
2022-11-20T19:22:39.039Z,81.71
2022-11-20T19:25:09.078Z,81.78
2022-11-20T19:27:37.440Z,81.35
2022-11-20T19:30:08.881Z,82.17
2022-11-20T19:32:37.221Z,82.72
2022-11-20T19:35:06.704Z,83.68
2022-11-20T19:37:35.731Z,81.39
2022-11-20T19:40:05.338Z,82.16
2022-11-20T19:42:33.916Z,81.63
2022-11-20T19:45:02.310Z,80.17
2022-11-20T19:48:00.666Z,80.85
2022-11-20T19:50:21.257Z,80.11
2022-11-20T19:52:52.007Z,80.64
2022-11-20T19:55:24.310Z,79.85
2022-11-20T19:57:52.624Z,78.95
2022-11-20T20:00:28.133Z,78.11
2022-11-20T20:03:02.288Z,76.62
2022-11-20T20:05:30.747Z,76.66
2022-11-20T20:07:59.270Z,77.17
2022-11-20T20:10:28.584Z,76.50
2022-11-20T20:12:57.102Z,76.68
2022-11-20T20:15:25.769Z,76.47
2022-11-20T20:17:54.497Z,75.50
2022-11-20T20:20:25.432Z,76.30
2022-11-20T20:22:53.724Z,76.56
2022-11-20T20:25:22.144Z,76.78
2022-11-20T20:27:50.555Z,77.38
2022-11-20T20:30:18.929Z,76.84
2022-11-20T20:32:50.713Z,76.64
2022-11-20T20:35:23.168Z,76.43
2022-11-20T20:37:51.569Z,76.66
2022-11-20T20:40:19.981Z,76.85
2022-11-20T20:42:48.295Z,77.02
2022-11-20T20:45:15.745Z,76.72
2022-11-20T20:47:44.214Z,77.32
2022-11-20T20:50:13.706Z,78.35
2022-11-20T20:52:43.540Z,77.03
2022-11-20T20:55:12.369Z,77.19
2022-11-20T20:57:41.835Z,77.26
2022-11-20T21:00:11.269Z,78.32
2022-11-20T21:02:39.705Z,78.43
2022-11-20T21:05:08.966Z,78.03
2022-11-20T21:07:58.209Z,78.45
2022-11-20T21:10:28.069Z,78.89
2022-11-20T21:12:56.308Z,78.74
2022-11-20T21:15:24.811Z,79.31
2022-11-20T21:17:53.090Z,79.00
2022-11-20T21:20:39.171Z,79.07
2022-11-20T21:23:11.221Z,79.81
2022-11-20T21:25:41.337Z,79.72
2022-11-20T21:28:13.165Z,79.06
2022-11-20T21:30:45.542Z,79.67
2022-11-20T21:33:14.134Z,79.81
2022-11-20T21:35:42.582Z,80.15
2022-11-20T21:38:10.903Z,80.15
2022-11-20T21:40:40.680Z,80.57
2022-11-20T21:43:09.075Z,80.42
2022-11-20T21:45:37.590Z,80.21
2022-11-20T21:48:07.044Z,80.52
2022-11-20T21:50:36.311Z,81.12
2022-11-20T21:53:04.612Z,80.80
2022-11-20T21:55:33.164Z,81.04
2022-11-20T21:58:02.836Z,80.86
2022-11-20T22:00:31.452Z,80.67
2022-11-20T22:03:00.084Z,80.86
2022-11-20T22:05:28.578Z,80.44
2022-11-20T22:07:57.039Z,80.23
2022-11-20T22:10:25.775Z,80.60
2022-11-20T22:13:15.569Z,81.00
2022-11-20T22:15:59.727Z,81.09
2022-11-20T22:18:28.991Z,80.60
2022-11-20T22:20:57.364Z,81.07
2022-11-20T22:23:25.889Z,81.50
2022-11-20T22:25:54.200Z,81.82
2022-11-20T22:28:22.728Z,81.53
2022-11-20T22:30:52.439Z,81.78
2022-11-20T22:33:20.811Z,81.90
2022-11-20T22:35:49.271Z,82.17
2022-11-20T22:38:17.707Z,82.30
2022-11-20T22:40:46.788Z,83.46
2022-11-20T22:43:16.148Z,85.32
2022-11-20T22:45:45.783Z,87.35
2022-11-20T22:48:15.778Z,87.98
2022-11-20T22:50:44.200Z,87.67
2022-11-20T22:53:12.557Z,88.64
2022-11-20T22:55:41.485Z,87.72
2022-11-20T22:58:09.783Z,87.05
2022-11-20T23:00:38.100Z,87.52
2022-11-20T23:03:07.165Z,87.36
2022-11-20T23:05:36.957Z,87.50
2022-11-20T23:08:05.750Z,87.44
2022-11-20T23:10:34.073Z,86.63
2022-11-20T23:13:02.417Z,86.50
2022-11-20T23:15:30.709Z,86.74
2022-11-20T23:17:59.044Z,86.22
2022-11-20T23:20:27.390Z,86.54
2022-11-20T23:22:57.250Z,86.79
2022-11-20T23:25:25.521Z,86.11
2022-11-20T23:27:55.177Z,86.07
2022-11-20T23:30:23.798Z,86.30
2022-11-20T23:32:52.136Z,85.79
2022-11-20T23:35:20.469Z,85.71
2022-11-20T23:37:48.854Z,85.46
2022-11-20T23:40:18.784Z,84.84
2022-11-20T23:43:01.132Z,85.44
2022-11-20T23:45:29.422Z,84.96
2022-11-20T23:47:58.011Z,84.89
2022-11-20T23:50:26.323Z,84.74
2022-11-20T23:52:54.773Z,84.59
2022-11-20T23:55:24.589Z,84.57
2022-11-20T23:57:53.150Z,84.81
